Time;durP1;ratioP1;P1;durP2;ratioP2;P2;SDS_P1;SDS_P2;PMS_P1;PMS_P2;Temp;Humidity;BMP_temperature;BMP_pressure;BME280_temperature;BME280_humidity;BME280_pressure;Samples;Min_cycle;Max_cycle;Signal;HPM_P1;HPM_P2
2023/03/28 00:01:51;;;;;;;14.43;11.30;;;;;;;-1.32;100.00;96593.16;4952777;28;20022;-65
2023/03/28 00:04:21;;;;;;;17.42;10.77;;;;;;;-1.34;100.00;96600.09;4953691;29;20034;-65
2023/03/28 00:06:50;;;;;;;12.25;9.43;;;;;;;-1.26;100.00;96599.88;4948087;29;20024;-65
2023/03/28 00:09:17;;;;;;;11.25;9.10;;;;;;;-1.31;100.00;96597.41;4956242;29;20019;-65
2023/03/28 00:11:43;;;;;;;13.63;8.48;;;;;;;-1.22;100.00;96594.53;4952777;29;20027;-65
2023/03/28 00:14:09;;;;;;;13.55;9.45;;;;;;;-1.18;100.00;96595.31;4946331;29;20082;-65
2023/03/28 00:16:37;;;;;;;13.75;8.60;;;;;;;-1.27;100.00;96596.44;4934947;29;20035;-65
2023/03/28 00:19:05;;;;;;;12.70;9.32;;;;;;;-1.33;100.00;96592.31;4950669;29;20045;-65
2023/03/28 00:21:34;;;;;;;9.98;7.85;;;;;;;-1.25;100.00;96596.41;4949361;29;20611;-65
2023/03/28 00:24:01;;;;;;;10.93;8.45;;;;;;;-1.30;100.00;96599.13;4946204;29;20027;-65
2023/03/28 00:26:30;;;;;;;8.30;7.50;;;;;;;-1.26;100.00;96590.38;4952283;29;20030;-65
2023/03/28 00:28:55;;;;;;;13.68;8.32;;;;;;;-1.32;100.00;96590.56;4952987;29;20059;-65
2023/03/28 00:31:23;;;;;;;9.18;7.75;;;;;;;-1.38;100.00;96588.19;4951838;29;20038;-65
2023/03/28 00:33:48;;;;;;;7.88;6.38;;;;;;;-1.41;100.00;96581.34;4958022;29;20030;-65
2023/03/28 00:36:17;;;;;;;11.27;7.97;;;;;;;-1.43;100.00;96584.91;4956070;29;20027;-65
2023/03/28 00:38:43;;;;;;;7.57;6.53;;;;;;;-1.44;100.00;96576.28;4943224;29;20055;-65
2023/03/28 00:41:09;;;;;;;8.82;6.35;;;;;;;-1.46;100.00;96576.31;4952294;29;20020;-65
2023/03/28 00:43:43;;;;;;;8.88;6.75;;;;;;;-1.49;100.00;96573.84;4946547;29;20241;-65
2023/03/28 00:46:19;;;;;;;8.57;6.80;;;;;;;-1.53;100.00;96574.00;4932820;29;20027;-64
2023/03/28 00:48:54;;;;;;;9.23;6.63;;;;;;;-1.54;100.00;96572.31;4945222;29;20051;-65
2023/03/28 00:51:24;;;;;;;12.18;6.88;;;;;;;-1.51;100.00;96567.88;4955677;29;20026;-65
2023/03/28 00:53:52;;;;;;;6.47;5.80;;;;;;;-1.50;100.00;96569.56;4952244;29;20034;-65
2023/03/28 00:56:22;;;;;;;8.18;6.05;;;;;;;-1.54;100.00;96565.38;4948046;29;20400;-65
2023/03/28 00:58:49;;;;;;;8.93;6.65;;;;;;;-1.58;100.00;96556.03;4948433;29;20053;-65
2023/03/28 01:01:18;;;;;;;8.93;6.50;;;;;;;-1.68;100.00;96552.03;4947584;29;20428;-65
2023/03/28 01:03:51;;;;;;;9.45;7.28;;;;;;;-1.70;100.00;96553.81;4946866;29;20445;-65
2023/03/28 01:06:20;;;;;;;13.20;8.60;;;;;;;-1.73;100.00;96553.00;4947633;29;20106;-65
2023/03/28 01:08:48;;;;;;;9.50;7.18;;;;;;;-1.72;100.00;96548.72;4949944;29;20029;-65
2023/03/28 01:11:14;;;;;;;7.97;6.68;;;;;;;-1.75;100.00;96549.63;4928368;29;20020;-65
2023/03/28 01:13:44;;;;;;;11.60;7.13;;;;;;;-1.78;100.00;96543.72;4951230;29;20572;-65
2023/03/28 01:16:13;;;;;;;8.68;7.45;;;;;;;-1.80;100.00;96532.56;4943688;29;20031;-65
2023/03/28 01:18:40;;;;;;;8.40;6.65;;;;;;;-1.82;100.00;96536.94;4946516;29;20084;-65
2023/03/28 01:21:30;;;;;;;8.30;7.15;;;;;;;-1.86;100.00;96525.88;4949995;29;20492;-65
2023/03/28 01:24:23;;;;;;;9.50;6.70;;;;;;;-1.87;100.00;96537.94;4955089;29;20078;-64
2023/03/28 01:26:53;;;;;;;8.98;6.88;;;;;;;-1.91;100.00;96527.72;4952564;29;20034;-65
2023/03/28 01:29:31;;;;;;;8.05;6.57;;;;;;;-1.94;100.00;96526.09;4942282;29;20556;-65
2023/03/28 01:32:14;;;;;;;8.20;5.88;;;;;;;-1.95;100.00;96531.31;4950040;29;20082;-65
2023/03/28 01:35:01;;;;;;;7.13;4.78;;;;;;;-1.63;100.00;96525.19;4952644;29;20039;-65
2023/03/28 01:37:27;;;;;;;7.88;5.20;;;;;;;-1.74;100.00;96524.69;4948147;29;20480;-67
2023/03/28 01:39:52;;;;;;;8.73;6.82;;;;;;;-1.82;100.00;96519.72;4944349;29;20077;-65
2023/03/28 01:42:38;;;;;;;6.82;5.97;;;;;;;-1.80;100.00;96519.66;4951243;29;20043;-65
2023/03/28 01:45:23;;;;;;;5.28;4.50;;;;;;;-1.70;100.00;96512.50;4946880;29;20029;-65
2023/03/28 01:48:21;;;;;;;7.88;6.13;;;;;;;-1.76;100.00;96500.63;4949303;29;20528;-65
2023/03/28 01:51:02;;;;;;;6.05;5.28;;;;;;;-1.83;100.00;96507.72;4950150;29;20078;-65
2023/03/28 01:53:45;;;;;;;5.32;4.82;;;;;;;-1.91;100.00;96510.53;4952235;29;20034;-65
2023/03/28 01:56:21;;;;;;;7.47;5.57;;;;;;;-1.92;100.00;96495.06;4942013;29;20030;-65
2023/03/28 01:59:15;;;;;;;9.13;5.85;;;;;;;-1.94;100.00;96502.88;4948956;29;20039;-65
2023/03/28 02:02:21;;;;;;;5.35;4.70;;;;;;;-1.92;100.00;96513.13;4947449;28;20388;-64
2023/03/28 02:04:48;;;;;;;7.25;6.55;;;;;;;-1.97;100.00;96517.59;4903538;29;20051;-64
2023/03/28 02:07:19;;;;;;;7.45;6.03;;;;;;;-1.97;100.00;96508.13;4946837;29;20023;-64
2023/03/28 02:09:47;;;;;;;6.63;5.45;;;;;;;-2.01;100.00;96511.66;4945916;29;20118;-64
2023/03/28 02:12:24;;;;;;;6.95;5.88;;;;;;;-2.03;100.00;96509.16;4949207;29;20127;-64
2023/03/28 02:14:52;;;;;;;9.82;8.80;;;;;;;-2.06;100.00;96508.38;4932126;29;20034;-64
2023/03/28 02:17:19;;;;;;;6.63;5.68;;;;;;;-2.15;100.00;96501.75;4946641;29;20053;-64
2023/03/28 02:19:52;;;;;;;6.63;5.45;;;;;;;-2.20;100.00;96512.22;4947083;29;20031;-65
2023/03/28 02:22:33;;;;;;;7.82;5.45;;;;;;;-2.21;100.00;96509.69;4924601;29;20087;-65
2023/03/28 02:24:58;;;;;;;5.22;4.82;;;;;;;-2.21;100.00;96501.94;4950410;29;20027;-65
2023/03/28 02:27:24;;;;;;;9.77;5.90;;;;;;;-2.23;100.00;96495.97;4937126;29;20030;-65
2023/03/28 02:29:53;;;;;;;23.60;17.35;;;;;;;-2.26;100.00;96496.91;4945040;29;20042;-65
2023/03/28 02:32:20;;;;;;;15.05;11.00;;;;;;;-2.26;100.00;96501.22;4946378;29;20031;-65
2023/03/28 02:34:48;;;;;;;8.23;7.30;;;;;;;-2.29;100.00;96499.56;4952300;29;20050;-65
2023/03/28 02:37:41;;;;;;;11.10;7.55;;;;;;;-2.28;100.00;96497.84;4947893;29;20031;-65
2023/03/28 02:40:34;;;;;;;14.45;10.98;;;;;;;-2.27;100.00;96491.78;4945601;29;20031;-65
2023/03/28 02:43:10;;;;;;;11.85;8.82;;;;;;;-2.25;100.00;96495.19;4942834;29;20562;-65
2023/03/28 02:45:55;;;;;;;10.25;8.20;;;;;;;-2.27;100.00;96494.38;4944970;29;20050;-65
2023/03/28 02:48:42;;;;;;;10.40;8.80;;;;;;;-2.33;100.00;96492.81;4930369;29;20070;-65
2023/03/28 02:51:40;;;;;;;14.65;9.18;;;;;;;-2.38;100.00;96490.34;4946014;29;20795;-65
2023/03/28 02:54:41;;;;;;;10.18;7.95;;;;;;;-2.38;100.00;96492.09;4942661;29;20097;-65
2023/03/28 02:57:45;;;;;;;10.70;7.68;;;;;;;-2.36;100.00;96491.16;4942732;29;20705;-65
2023/03/28 03:00:17;;;;;;;10.35;7.20;;;;;;;-2.36;100.00;96480.84;4851658;29;20611;-65
2023/03/28 03:02:44;;;;;;;9.02;7.93;;;;;;;-2.37;100.00;96478.31;4939670;29;20090;-65
2023/03/28 03:05:10;;;;;;;11.98;9.60;;;;;;;-2.39;100.00;96478.34;4956037;29;20023;-65
2023/03/28 03:07:40;;;;;;;11.05;9.13;;;;;;;-2.41;100.00;96477.53;4954680;29;20023;-65
2023/03/28 03:10:08;;;;;;;8.50;7.22;;;;;;;-2.41;100.00;96487.03;4948712;29;20110;-65
2023/03/28 03:12:35;;;;;;;9.35;7.78;;;;;;;-2.42;100.00;96481.00;4952658;28;20058;-65
2023/03/28 03:15:02;;;;;;;6.53;5.65;;;;;;;-2.43;100.00;96483.63;4959084;29;20019;-65
2023/03/28 03:17:28;;;;;;;6.93;6.07;;;;;;;-2.43;100.00;96481.03;4958750;29;20033;-65
2023/03/28 03:19:54;;;;;;;7.60;6.00;;;;;;;-2.49;100.00;96476.94;4959466;29;20034;-65
2023/03/28 03:22:21;;;;;;;12.27;7.22;;;;;;;-2.52;100.00;96477.84;4958276;29;20152;-65
2023/03/28 03:24:47;;;;;;;8.00;7.20;;;;;;;-2.53;100.00;96477.91;4959281;29;20042;-65
2023/03/28 03:27:13;;;;;;;8.65;6.97;;;;;;;-2.53;100.00;96478.72;4958533;29;20027;-65
2023/03/28 03:29:38;;;;;;;7.90;6.35;;;;;;;-2.53;100.00;96486.47;4959023;29;20539;-65
2023/03/28 03:32:04;;;;;;;8.75;6.70;;;;;;;-2.54;100.00;96476.19;4958934;29;20477;-65
2023/03/28 03:34:32;;;;;;;10.75;6.57;;;;;;;-2.57;100.00;96482.28;4959764;29;20033;-65
2023/03/28 03:36:59;;;;;;;9.55;6.20;;;;;;;-2.58;100.00;96488.34;4958174;29;20044;-65
2023/03/28 03:39:24;;;;;;;7.22;6.38;;;;;;;-2.59;100.00;96484.91;4949508;29;20404;-65
2023/03/28 03:41:50;;;;;;;7.70;7.00;;;;;;;-2.58;100.00;96485.75;4951920;28;20027;-65
2023/03/28 03:44:15;;;;;;;12.35;9.75;;;;;;;-2.64;100.00;96497.06;4955971;29;20031;-65
2023/03/28 03:46:41;;;;;;;10.02;9.20;;;;;;;-2.66;100.00;96498.84;4957721;29;20019;-65
2023/03/28 03:49:08;;;;;;;9.93;9.02;;;;;;;-2.67;100.00;96493.72;4958969;29;20388;-65
2023/03/28 03:51:34;;;;;;;10.48;8.80;;;;;;;-2.67;100.00;96491.13;4949314;28;20051;-65
2023/03/28 03:54:00;;;;;;;11.48;8.02;;;;;;;-2.71;100.00;96492.97;4957656;29;20546;-65
2023/03/28 03:56:25;;;;;;;10.80;8.68;;;;;;;-2.71;100.00;96490.41;4952430;29;20092;-65
2023/03/28 03:58:51;;;;;;;9.27;7.45;;;;;;;-2.72;100.00;96488.72;4950598;29;20115;-65
2023/03/28 04:01:16;;;;;;;12.40;9.35;;;;;;;-2.74;100.00;96491.31;4929803;29;20536;-65
2023/03/28 04:03:42;;;;;;;11.60;9.05;;;;;;;-2.79;100.00;96497.47;4953191;29;20023;-65
2023/03/28 04:06:08;;;;;;;12.15;9.57;;;;;;;-2.79;100.00;96497.47;4952435;29;20031;-66
2023/03/28 04:08:34;;;;;;;11.48;8.68;;;;;;;-2.79;100.00;96502.63;4956153;29;20023;-65
2023/03/28 04:10:59;;;;;;;12.35;11.20;;;;;;;-2.81;100.00;96500.09;4936580;29;20031;-65
2023/03/28 04:13:25;;;;;;;13.68;11.13;;;;;;;-2.82;100.00;96505.28;4943024;29;20030;-65
2023/03/28 04:15:50;;;;;;;6.57;5.97;;;;;;;-2.82;100.00;96498.41;4956323;29;20031;-65
2023/03/28 04:18:19;;;;;;;5.35;4.85;;;;;;;-2.84;100.00;96507.06;4951463;29;20480;-65
2023/03/28 04:20:52;;;;;;;5.10;4.28;;;;;;;-2.85;100.00;96500.22;4943501;29;20488;-65
2023/03/28 04:23:19;;;;;;;5.20;4.70;;;;;;;-2.85;100.00;96495.06;4932672;28;20035;-65
2023/03/28 04:25:48;;;;;;;5.45;3.72;;;;;;;-2.85;100.00;96497.63;4924815;29;20038;-66
2023/03/28 04:28:14;;;;;;;5.88;4.78;;;;;;;-2.83;100.00;96498.44;4958397;29;20031;-66
2023/03/28 04:30:40;;;;;;;6.57;5.90;;;;;;;-2.79;100.00;96500.03;4947306;29;20023;-66
2023/03/28 04:33:06;;;;;;;8.35;6.88;;;;;;;-2.80;100.00;96508.66;4958106;29;20078;-66
2023/03/28 04:35:34;;;;;;;12.10;10.05;;;;;;;-2.84;100.00;96514.78;4957693;29;20027;-66
2023/03/28 04:38:01;;;;;;;10.80;9.70;;;;;;;-2.88;100.00;96519.16;4957594;29;20046;-67
2023/03/28 04:40:28;;;;;;;9.02;8.30;;;;;;;-2.90;100.00;96514.06;4954280;29;20047;-66
2023/03/28 04:42:53;;;;;;;8.27;7.57;;;;;;;-2.89;100.00;96514.91;4957874;29;20082;-66
2023/03/28 04:45:19;;;;;;;6.43;5.80;;;;;;;-2.68;100.00;96516.09;4945377;29;20031;-66
2023/03/28 04:47:45;;;;;;;7.50;6.68;;;;;;;-2.60;100.00;96510.75;4953615;29;20054;-65
2023/03/28 04:50:11;;;;;;;9.68;7.90;;;;;;;-2.73;100.00;96523.13;4953950;29;20031;-66
2023/03/28 04:52:37;;;;;;;7.93;7.22;;;;;;;-2.80;100.00;96521.56;4953664;29;20023;-66
2023/03/28 04:55:03;;;;;;;8.18;7.32;;;;;;;-2.76;100.00;96533.50;4949877;29;20030;-66
2023/03/28 04:57:29;;;;;;;8.05;7.38;;;;;;;-2.73;100.00;96533.41;4945679;29;20051;-66
2023/03/28 04:59:55;;;;;;;8.30;7.45;;;;;;;-2.78;100.00;96548.13;4932869;29;20015;-66
2023/03/28 05:02:20;;;;;;;7.90;7.20;;;;;;;-2.79;100.00;96543.88;4947164;29;20071;-66
2023/03/28 05:04:46;;;;;;;9.20;8.30;;;;;;;-2.80;100.00;96542.19;4943908;29;20034;-65
2023/03/28 05:07:12;;;;;;;8.43;7.63;;;;;;;-2.87;100.00;96541.50;4947523;29;20020;-65
2023/03/28 05:09:37;;;;;;;12.35;9.25;;;;;;;-2.92;100.00;96539.03;4954660;29;20054;-65
2023/03/28 05:12:03;;;;;;;11.80;10.70;;;;;;;-2.96;100.00;96541.72;4947448;29;20043;-65
2023/03/28 05:14:28;;;;;;;11.65;10.50;;;;;;;-2.92;100.00;96541.63;4950905;29;20028;-65
2023/03/28 05:16:54;;;;;;;10.20;9.25;;;;;;;-2.96;100.00;96534.00;4949105;29;20023;-66
2023/03/28 05:19:20;;;;;;;9.35;8.40;;;;;;;-2.95;100.00;96535.69;4951860;29;20023;-66
2023/03/28 05:21:46;;;;;;;10.18;7.03;;;;;;;-2.95;100.00;96543.41;4954106;29;20055;-66
2023/03/28 05:24:11;;;;;;;8.23;6.68;;;;;;;-2.96;100.00;96546.88;4940992;29;20055;-66
2023/03/28 05:26:36;;;;;;;7.05;6.35;;;;;;;-2.94;100.00;96553.69;4949313;29;20030;-66
2023/03/28 05:29:02;;;;;;;7.60;6.55;;;;;;;-2.89;100.00;96558.72;4926914;29;20066;-66
2023/03/28 05:31:29;;;;;;;8.18;7.43;;;;;;;-2.87;100.00;96556.97;4935615;29;20031;-66
2023/03/28 05:33:55;;;;;;;10.38;9.32;;;;;;;-2.86;100.00;96560.38;4954925;29;20480;-66
2023/03/28 05:36:20;;;;;;;11.20;8.90;;;;;;;-2.92;100.00;96564.81;4952737;28;20121;-66
2023/03/28 05:38:46;;;;;;;8.98;8.05;;;;;;;-2.93;100.00;96570.84;4951024;29;20549;-66
2023/03/28 05:41:11;;;;;;;10.30;7.47;;;;;;;-2.97;100.00;96568.38;4944089;29;20091;-66
2023/03/28 05:43:37;;;;;;;11.27;8.15;;;;;;;-2.90;100.00;96569.91;4953071;29;20520;-66
2023/03/28 05:46:02;;;;;;;9.25;8.32;;;;;;;-2.86;100.00;96574.13;4936639;29;20086;-66
2023/03/28 05:48:27;;;;;;;9.15;8.43;;;;;;;-2.83;100.00;96578.34;4948748;29;20048;-66
2023/03/28 05:50:53;;;;;;;9.13;8.30;;;;;;;-2.79;100.00;96579.94;4945329;29;20043;-66
2023/03/28 05:53:19;;;;;;;9.43;8.52;;;;;;;-2.79;100.00;96580.81;4950689;29;20028;-66
2023/03/28 05:55:44;;;;;;;9.40;8.50;;;;;;;-2.79;100.00;96575.66;4937800;29;20034;-64
2023/03/28 05:58:10;;;;;;;9.18;8.43;;;;;;;-2.79;100.00;96582.53;4939404;29;20048;-65
2023/03/28 06:00:36;;;;;;;10.48;9.57;;;;;;;-2.80;100.00;96586.00;4944059;29;20052;-66
2023/03/28 06:03:01;;;;;;;9.85;8.95;;;;;;;-2.79;100.00;96585.09;4948943;29;20028;-65
2023/03/28 06:05:26;;;;;;;11.00;9.85;;;;;;;-2.78;100.00;96585.09;4950087;29;20039;-66
2023/03/28 06:07:52;;;;;;;10.60;9.52;;;;;;;-2.78;100.00;96585.09;4951944;29;20031;-65
2023/03/28 06:10:18;;;;;;;15.45;12.15;;;;;;;-2.76;100.00;96587.63;4954866;29;20027;-67
2023/03/28 06:12:44;;;;;;;16.15;13.73;;;;;;;-2.74;100.00;96589.28;4953746;29;20019;-66
2023/03/28 06:15:10;;;;;;;14.75;13.07;;;;;;;-2.71;100.00;96587.50;4949782;29;20037;-66
2023/03/28 06:17:36;;;;;;;16.05;14.50;;;;;;;-2.69;100.00;96589.16;4928751;29;20080;-65
2023/03/28 06:20:05;;;;;;;18.20;16.40;;;;;;;-2.68;100.00;96590.84;4946100;29;20055;-65
2023/03/28 06:22:31;;;;;;;17.23;15.52;;;;;;;-2.69;100.00;96589.16;4951508;29;20087;-65
2023/03/28 06:24:57;;;;;;;17.75;16.13;;;;;;;-2.69;100.00;96594.31;4951505;29;20045;-66
2023/03/28 06:27:22;;;;;;;20.25;15.77;;;;;;;-2.66;100.00;96594.25;4953873;29;20027;-66
2023/03/28 06:29:48;;;;;;;16.15;14.55;;;;;;;-2.63;100.00;96588.19;4955138;29;20106;-66
2023/03/28 06:32:14;;;;;;;16.58;13.95;;;;;;;-2.61;100.00;96584.66;4954569;29;20019;-66
2023/03/28 06:34:39;;;;;;;15.45;13.77;;;;;;;-2.60;100.00;96583.75;4927521;29;20481;-67
2023/03/28 06:37:05;;;;;;;15.13;13.20;;;;;;;-2.59;100.00;96585.44;4952956;29;20097;-66
2023/03/28 06:39:30;;;;;;;13.82;12.52;;;;;;;-2.59;100.00;96582.88;4950971;28;20547;-66
2023/03/28 06:41:56;;;;;;;14.05;12.68;;;;;;;-2.52;100.00;96580.16;4948638;29;20027;-64
2023/03/28 06:44:21;;;;;;;12.75;11.52;;;;;;;-2.49;100.00;96583.47;4947421;29;20032;-65
2023/03/28 06:46:46;;;;;;;13.20;12.00;;;;;;;-2.43;100.00;96581.63;4951968;28;20035;-64
2023/03/28 06:49:12;;;;;;;13.50;12.20;;;;;;;-2.41;100.00;96582.47;4952868;29;20063;-65
2023/03/28 06:51:37;;;;;;;15.50;13.57;;;;;;;-2.39;100.00;96589.25;4946210;29;20032;-66
2023/03/28 06:54:03;;;;;;;16.05;11.40;;;;;;;-2.35;100.00;96590.84;4953711;29;20384;-66
2023/03/28 06:56:28;;;;;;;15.68;10.95;;;;;;;-2.29;100.00;96583.88;4924367;29;20047;-66
2023/03/28 06:58:54;;;;;;;16.40;12.20;;;;;;;-2.19;100.00;96586.16;4932784;29;20114;-66
2023/03/28 07:01:19;;;;;;;12.57;10.60;;;;;;;-2.17;100.00;96588.69;4955817;29;20043;-66
2023/03/28 07:03:44;;;;;;;11.35;9.55;;;;;;;-2.14;100.00;96587.75;4950011;29;20043;-65
2023/03/28 07:06:10;;;;;;;11.50;10.40;;;;;;;-2.18;100.00;96586.97;4951522;29;20094;-66
2023/03/28 07:08:36;;;;;;;11.95;10.77;;;;;;;-2.16;100.00;96585.22;4953505;29;20031;-66
2023/03/28 07:11:02;;;;;;;14.60;13.00;;;;;;;-1.93;100.00;96584.59;4955931;29;20062;-65
2023/03/28 07:13:28;;;;;;;17.17;14.32;;;;;;;-1.01;100.00;96587.00;4956163;29;20015;-66
2023/03/28 07:15:59;;;;;;;16.00;14.40;;;;;;;0.15;100.00;96584.84;4940857;29;20038;-66
2023/03/28 07:18:25;;;;;;;11.13;10.02;;;;;;;1.13;100.00;96600.13;4955174;29;20035;-66
2023/03/28 07:20:50;;;;;;;17.92;9.68;;;;;;;1.86;100.00;96596.28;4947490;29;20031;-66
2023/03/28 07:23:16;;;;;;;37.55;22.63;;;;;;;2.35;98.10;96598.50;4953324;29;20107;-66
2023/03/28 07:25:41;;;;;;;22.25;13.52;;;;;;;2.88;96.64;96603.06;4932528;29;20600;-66
2023/03/28 07:28:06;;;;;;;24.23;15.90;;;;;;;3.17;90.54;96598.22;4950314;29;20424;-66
2023/03/28 07:30:32;;;;;;;13.45;7.55;;;;;;;3.38;96.72;96607.59;4950974;29;20404;-66
2023/03/28 07:32:57;;;;;;;6.28;5.63;;;;;;;3.14;88.99;96605.25;4949761;29;20495;-66
2023/03/28 07:35:23;;;;;;;9.63;7.80;;;;;;;3.28;90.30;96611.56;4925595;29;21024;-67
2023/03/28 07:37:48;;;;;;;9.32;6.70;;;;;;;3.73;87.35;96606.75;4955942;29;20042;-67
2023/03/28 07:40:14;;;;;;;6.63;4.47;;;;;;;4.28;82.58;96610.91;4954939;29;20579;-65
2023/03/28 07:42:39;;;;;;;4.25;2.65;;;;;;;4.81;75.93;96609.88;4956359;29;20042;-65
2023/03/28 07:45:05;;;;;;;3.60;2.72;;;;;;;5.04;74.42;96613.00;4954143;29;20023;-66
2023/03/28 07:47:30;;;;;;;7.20;2.72;;;;;;;5.70;77.70;96611.88;4954297;29;20051;-66
2023/03/28 07:49:56;;;;;;;2.53;2.33;;;;;;;5.44;73.44;96619.47;4934588;29;20197;-66
2023/03/28 07:52:22;;;;;;;2.25;2.05;;;;;;;5.28;73.14;96618.63;4937826;29;20491;-66
2023/03/28 07:54:48;;;;;;;2.08;1.95;;;;;;;5.81;70.36;96620.84;4951398;29;20034;-66
2023/03/28 07:57:13;;;;;;;2.17;2.08;;;;;;;5.99;67.75;96619.78;4954897;29;20508;-66
2023/03/28 07:59:39;;;;;;;2.97;2.67;;;;;;;6.18;67.74;96620.47;4955291;28;20451;-67
2023/03/28 08:02:05;;;;;;;6.18;3.40;;;;;;;6.44;71.32;96611.94;4944944;29;20054;-67
2023/03/28 08:04:30;;;;;;;5.20;4.20;;;;;;;6.36;63.98;96616.75;4955505;29;20034;-67
2023/03/28 08:06:56;;;;;;;2.92;2.70;;;;;;;6.52;63.03;96616.69;4951769;29;20028;-67
2023/03/28 08:09:22;;;;;;;3.08;2.75;;;;;;;6.76;59.00;96617.88;4948613;29;20035;-67
2023/03/28 08:11:47;;;;;;;2.47;2.20;;;;;;;6.83;58.51;96624.41;4941466;29;20059;-67
2023/03/28 08:14:16;;;;;;;12.68;11.32;;;;;;;6.64;57.84;96635.19;4951689;29;20027;-67
2023/03/28 08:16:42;;;;;;;6.53;5.93;;;;;;;6.58;57.46;96636.38;4952599;29;20023;-67
2023/03/28 08:19:08;;;;;;;3.67;3.38;;;;;;;5.98;61.20;96632.97;4954965;29;20505;-67
2023/03/28 08:21:34;;;;;;;3.85;3.30;;;;;;;5.36;63.42;96634.69;4946575;29;20051;-67
2023/03/28 08:24:03;;;;;;;4.97;3.17;;;;;;;5.20;64.73;96639.13;4943285;29;20028;-67
2023/03/28 08:26:29;;;;;;;3.20;2.88;;;;;;;5.96;65.16;96634.78;4946594;29;20034;-67
2023/03/28 08:28:57;;;;;;;3.65;2.50;;;;;;;6.07;62.95;96644.66;4943324;29;20035;-67
2023/03/28 08:31:25;;;;;;;4.88;2.90;;;;;;;6.52;60.84;96644.63;4941121;29;20034;-68
2023/03/28 08:33:51;;;;;;;3.83;2.97;;;;;;;6.34;61.03;96650.03;4953055;29;20038;-67
2023/03/28 08:36:18;;;;;;;5.15;2.67;;;;;;;6.82;59.35;96644.50;4956083;29;20063;-67
2023/03/28 08:38:45;;;;;;;3.50;2.92;;;;;;;6.76;60.70;96644.91;4944230;29;20599;-67
2023/03/28 08:41:13;;;;;;;2.85;2.65;;;;;;;6.73;59.76;96650.31;4955151;29;20114;-67
2023/03/28 08:44:02;;;;;;;2.72;2.40;;;;;;;6.76;54.87;96652.75;4944513;29;20027;-67
2023/03/28 08:46:29;;;;;;;2.78;2.30;;;;;;;7.06;58.94;96662.25;4952383;29;20038;-67
2023/03/28 08:48:58;;;;;;;2.58;2.38;;;;;;;7.93;54.98;96656.72;4930763;29;20055;-68
2023/03/28 08:51:30;;;;;;;1.83;1.73;;;;;;;7.67;50.94;96656.66;4952865;29;20090;-67
2023/03/28 08:54:04;;;;;;;3.10;2.33;;;;;;;6.85;52.79;96662.66;4948251;29;20020;-67
2023/03/28 08:56:33;;;;;;;3.30;2.90;;;;;;;6.38;54.96;96653.31;4953934;29;20038;-67
2023/03/28 08:59:10;;;;;;;3.45;2.90;;;;;;;6.12;54.70;96645.25;4946835;29;20038;-67
2023/03/28 09:01:35;;;;;;;2.70;2.50;;;;;;;6.56;57.58;96649.59;4947156;29;20035;-67
2023/03/28 09:04:01;;;;;;;3.28;2.33;;;;;;;6.26;55.28;96653.09;4942943;29;20031;-67
2023/03/28 09:06:35;;;;;;;2.85;2.58;;;;;;;6.25;53.89;96648.78;4943100;29;20401;-67
2023/03/28 09:09:15;;;;;;;2.58;2.33;;;;;;;7.04;55.22;96653.66;4947684;29;20114;-67
2023/03/28 09:11:56;;;;;;;4.18;1.83;;;;;;;7.52;53.26;96644.53;4940650;29;20035;-67
2023/03/28 09:14:40;;;;;;;2.40;2.00;;;;;;;7.72;51.92;96646.69;4949512;29;20106;-67
2023/03/28 09:17:31;;;;;;;3.55;2.33;;;;;;;7.67;51.06;96633.06;4939722;29;20028;-68
2023/03/28 09:20:25;;;;;;;2.72;2.30;;;;;;;8.18;50.69;96639.31;4936997;29;20087;-67
2023/03/28 09:23:06;;;;;;;2.97;2.40;;;;;;;8.57;49.40;96634.09;4941248;29;20751;-67
2023/03/28 09:25:54;;;;;;;2.92;2.10;;;;;;;8.56;45.66;96625.41;4955189;29;20061;-67
2023/03/28 09:29:31;;;;;;;2.30;2.10;;;;;;;7.80;47.57;96630.47;4952384;29;20122;-67
2023/03/28 09:32:10;;;;;;;2.00;1.90;;;;;;;7.72;48.50;96625.72;4807906;29;20045;-67
2023/03/28 09:34:38;;;;;;;2.33;2.03;;;;;;;7.66;47.96;96622.66;4838919;29;20030;-67
2023/03/28 09:37:34;;;;;;;2.25;2.05;;;;;;;8.11;46.25;96612.66;4901321;29;20037;-67
2023/03/28 09:40:11;;;;;;;2.72;2.28;;;;;;;7.96;49.06;96605.84;4940763;29;20524;-67
2023/03/28 09:43:04;;;;;;;2.70;2.13;;;;;;;8.23;45.15;96603.13;4938843;29;20050;-68
2023/03/28 09:45:42;;;;;;;2.17;2.08;;;;;;;8.34;45.83;96598.94;4951355;29;20039;-67
2023/03/28 09:48:17;;;;;;;3.20;1.92;;;;;;;8.43;46.06;96596.50;4952454;29;20058;-67
2023/03/28 09:50:43;;;;;;;;;;;;;;;8.57;44.20;96592.97;4951417;29;20526;-67
2023/03/28 09:53:18;;;;;;;2.95;2.10;;;;;;;8.60;45.40;96586.63;4952827;29;20067;-68
2023/03/28 09:55:43;;;;;;;;;;;;;;;8.91;43.01;96587.09;4943127;29;20119;-68
2023/03/28 09:58:10;;;;;;;;;;;;;;;9.08;43.24;96599.03;4953216;29;20454;-67
2023/03/28 10:00:50;;;;;;;1.75;1.65;;;;;;;8.76;43.47;96596.91;4951248;29;19910;-68
2023/03/28 10:03:21;;;;;;;3.10;2.28;;;;;;;8.41;43.50;96600.19;4939847;29;20883;-67
2023/03/28 10:05:50;;;;;;;2.50;2.30;;;;;;;8.50;43.85;96598.72;4943859;29;20062;-67
2023/03/28 10:08:34;;;;;;;3.05;1.70;;;;;;;8.06;43.52;96588.53;4948211;29;20114;-67
2023/03/28 10:11:12;;;;;;;3.53;3.00;;;;;;;8.08;46.16;96598.94;4919833;29;20099;-68
2023/03/28 10:13:49;;;;;;;3.22;2.58;;;;;;;8.17;45.08;96598.28;4950927;29;20025;-67
2023/03/28 10:16:24;;;;;;;4.72;3.33;;;;;;;8.17;45.14;96596.50;4943838;29;20095;-67
2023/03/28 10:18:49;;;;;;;2.00;1.90;;;;;;;7.92;42.55;96591.25;4938181;29;20031;-67
2023/03/28 10:21:17;;;;;;;2.65;2.20;;;;;;;7.99;42.43;96595.97;4947008;28;20035;-67
2023/03/28 10:23:46;;;;;;;2.90;2.30;;;;;;;7.65;43.40;96600.88;4946857;29;20036;-68
2023/03/28 10:26:20;;;;;;;3.15;2.70;;;;;;;8.19;44.06;96608.69;4952552;29;20046;-67
2023/03/28 10:28:51;;;;;;;4.50;1.90;;;;;;;8.62;42.47;96602.28;4930956;29;20025;-67
2023/03/28 10:31:27;;;;;;;2.50;2.30;;;;;;;8.53;44.61;96604.63;4952405;29;20031;-67
2023/03/28 10:33:55;;;;;;;3.30;2.50;;;;;;;8.64;44.72;96598.63;4955920;29;20548;-67
2023/03/28 10:36:42;;;;;;;4.93;2.25;;;;;;;9.33;43.53;96599.88;4954901;28;20122;-67
2023/03/28 10:39:25;;;;;;;4.55;2.63;;;;;;;9.26;43.90;96604.72;4952611;29;20027;-68
2023/03/28 10:41:56;;;;;;;5.43;2.97;;;;;;;9.40;46.70;96598.50;4950806;29;20118;-67
2023/03/28 10:44:36;;;;;;;4.68;2.60;;;;;;;9.97;44.73;96608.38;4949149;28;20023;-67
2023/03/28 10:47:09;;;;;;;2.53;2.05;;;;;;;10.42;43.76;96618.16;4955324;28;20102;-69
2023/03/28 10:49:55;;;;;;;2.55;2.35;;;;;;;10.48;41.91;96622.13;4951236;29;20031;-69
2023/03/28 10:53:02;;;;;;;2.50;2.30;;;;;;;10.26;42.13;96627.19;4949436;29;20042;-68
2023/03/28 10:55:37;;;;;;;2.33;2.13;;;;;;;10.16;42.26;96634.94;4907971;29;20120;-68
2023/03/28 10:58:26;;;;;;;;;;;;;;;11.04;40.47;96630.00;4947199;29;20031;-70
2023/03/28 11:01:10;;;;;;;3.13;2.60;;;;;;;11.55;39.40;96632.16;4944526;29;19911;-68
2023/03/28 11:04:01;;;;;;;2.38;2.17;;;;;;;11.29;39.42;96635.97;4951254;29;20066;-67
2023/03/28 11:06:55;;;;;;;2.22;1.98;;;;;;;10.96;39.63;96637.69;4952755;29;20035;-67
2023/03/28 11:09:23;;;;;;;2.80;2.53;;;;;;;11.55;39.07;96632.16;4936861;29;20043;-72
2023/03/28 11:12:40;;;;;;;3.65;2.22;;;;;;;10.74;39.39;96634.09;4930915;29;20090;-67
2023/03/28 11:15:17;;;;;;;2.63;2.08;;;;;;;10.05;40.58;96634.94;4907299;29;20507;-67
2023/03/28 11:18:01;;;;;;;4.03;2.83;;;;;;;10.40;39.73;96636.72;4951590;29;20070;-67
2023/03/28 11:20:41;;;;;;;2.90;2.40;;;;;;;10.19;41.71;96623.34;4952819;29;20019;-67
2023/03/28 11:23:15;;;;;;;4.05;2.17;;;;;;;10.61;40.90;96628.13;4954396;29;20083;-67
2023/03/28 11:25:51;;;;;;;3.10;2.05;;;;;;;10.73;37.55;96607.91;4951870;29;20027;-67
2023/03/28 11:28:32;;;;;;;3.22;2.20;;;;;;;10.51;38.95;96601.66;4953532;29;20062;-67
2023/03/28 11:30:59;;;;;;;4.35;2.00;;;;;;;10.48;39.25;96601.06;4957208;29;20043;-67
2023/03/28 11:33:52;;;;;;;3.15;2.10;;;;;;;10.72;38.43;96598.28;4955308;28;20027;-67
2023/03/28 11:36:30;;;;;;;2.85;1.83;;;;;;;11.24;36.82;96589.84;4955030;29;20043;-67
2023/03/28 11:39:04;;;;;;;4.10;2.22;;;;;;;11.99;35.66;96580.16;4954504;29;20031;-67
2023/03/28 11:41:35;;;;;;;1.80;1.70;;;;;;;11.67;33.58;96583.69;4955963;29;20547;-67
2023/03/28 11:44:15;;;;;;;1.92;1.70;;;;;;;10.69;35.85;96588.84;4955587;29;20460;-66
2023/03/28 11:46:47;;;;;;;2.00;1.90;;;;;;;10.73;34.46;96578.91;4955969;29;20019;-66